ダラス/フォートワース の空港の天気 - METARとTAF

ダラス・フォートワース国際空港 ( KDFW / DFW ) - アメリカ テキサス州ダラス & フォートワース
飛行場実況気象(Metar)
観測時間09/21 19:53 CDT (09/22 00:53 UTC)
風向・風速東北東 5m/s
視程10km以上
天気現象弱い雨
全天を覆う雲 雲底高度 400m
気温19.4℃
湿度97%
気圧1017.5hPa
METARKDFW 220053Z 06009KT 10SM -RA OVC013 19/19 A3006 RMK AO2 SLP175 P0003 T01940189 $
過去の天気等 Google飛行場航空写真 Wunderground天気予報

過去48時間のMETAR

飛行場予報(TAF)
発表時間: 9/21 18:31 CDT (9/21 23:31 UTC)
予報対象時間: 21日19時 CDT ~ 23日1時 CDT
風向・風速東北東 5m/s
視程8050m
天気現象もや 周辺でしゅう雨
全天を覆う雲 雲底高度 340m
21日19時 CDT ~ 21日22時 CDT に一時的に
視程4830m
天気現象弱い雨
全天を覆う雲 雲底高度 210m
21日22時 CDT から
風向・風速東北東 6m/s
視程8050m
天気現象もや 周辺でしゅう雨
全天を覆う雲 雲底高度 210m
22日3時 CDT から
風向・風速北東 4m/s
視程3220m
天気現象もや 周辺でしゅう雨
全天を覆う雲 雲底高度 150m
22日16時 CDT から
風向・風速北東 4m/s
視程6440m
天気現象もや
全天を覆う雲 雲底高度 210m
KDFW 212331Z 2200/2306 07010KT 5SM BR VCSH OVC011
TEMPO 2200/2203 3SM -RA OVC007
FM220300 06011KT 5SM BR VCSH OVC007
FM220800 05007KT 2SM BR VCSH OVC005
FM222100 05007KT 4SM BR OVC007